Time,TemperatureF,DewpointF,PressureIn,WindDirection,WindDirectionDegrees,WindSpeedMPH,WindSpeedGustMPH,Humidity,HourlyPrecipIn,Conditions,Clouds,dailyrainin,SoftwareType,DateUTC
2014-01-31 00:08:00,13.8,10.9,29.11,SW,225,0.0,-999.0,88,-99.99,,,0.00,Acu-Link.com,2014-01-31 05:08:00,
2014-01-31 00:23:00,13.5,10.6,29.11,NW,315,0.0,-999.0,88,-99.99,,,0.00,Acu-Link.com,2014-01-31 05:23:00,
2014-01-31 00:38:00,13.3,10.4,29.12,West,270,0.0,-999.0,88,-99.99,,,0.00,Acu-Link.com,2014-01-31 05:38:00,
2014-01-31 00:54:00,13.8,10.9,29.12,WSW,247,0.0,-999.0,88,-99.99,,,0.00,Acu-Link.com,2014-01-31 05:54:00,
2014-01-31 01:09:00,14.5,11.6,29.11,SW,225,0.0,-999.0,88,-99.99,,,0.00,Acu-Link.com,2014-01-31 06:09:00,
2014-01-31 01:24:00,14.9,11.7,29.09,SW,225,0.0,-999.0,87,-99.99,,,0.00,Acu-Link.com,2014-01-31 06:24:00,
2014-01-31 01:40:00,14.5,11.4,29.09,WNW,292,0.0,-999.0,87,-99.99,,,0.00,Acu-Link.com,2014-01-31 06:40:00,
2014-01-31 01:55:00,14.7,11.5,29.08,WSW,247,0.0,-999.0,87,-99.99,,,0.00,Acu-Link.com,2014-01-31 06:55:00,
2014-01-31 02:10:00,14.7,11.5,29.09,North,0,0.0,-999.0,87,-99.99,,,0.00,Acu-Link.com,2014-01-31 07:10:00,
2014-01-31 02:26:00,15.3,12.1,29.08,West,270,0.0,-999.0,87,-99.99,,,0.00,Acu-Link.com,2014-01-31 07:26:00,
2014-01-31 02:41:00,16.0,12.6,29.06,WNW,292,0.0,-999.0,86,-99.99,,,0.00,Acu-Link.com,2014-01-31 07:41:00,
2014-01-31 02:56:00,16.5,13.3,29.06,SW,225,0.0,-999.0,87,-99.99,,,0.00,Acu-Link.com,2014-01-31 07:56:00,
2014-01-31 03:12:00,17.2,13.7,29.06,NW,315,0.0,-999.0,86,-99.99,,,0.00,Acu-Link.com,2014-01-31 08:12:00,
2014-01-31 03:27:00,17.8,14.1,29.05,SW,225,0.0,-999.0,85,-99.99,,,0.00,Acu-Link.com,2014-01-31 08:27:00,
2014-01-31 03:42:00,18.7,15.2,29.06,SSW,202,0.0,-999.0,86,-99.99,,,0.00,Acu-Link.com,2014-01-31 08:42:00,
2014-01-31 03:58:00,18.9,15.4,29.05,SSW,202,0.0,-999.0,86,-99.99,,,0.00,Acu-Link.com,2014-01-31 08:58:00,
2014-01-31 04:13:00,19.4,15.9,29.04,West,270,0.0,-999.0,86,-99.99,,,0.00,Acu-Link.com,2014-01-31 09:13:00,
2014-01-31 04:28:00,19.6,16.1,29.05,NW,315,0.0,-999.0,86,-99.99,,,0.00,Acu-Link.com,2014-01-31 09:28:00,
2014-01-31 04:43:00,19.8,16.3,29.06,NW,315,0.0,-999.0,86,-99.99,,,0.00,Acu-Link.com,2014-01-31 09:43:00,
2014-01-31 04:59:00,20.1,16.6,29.06,SSW,202,0.0,-999.0,86,-99.99,,,0.00,Acu-Link.com,2014-01-31 09:59:00,
2014-01-31 05:14:00,20.3,16.8,29.05,NNW,337,0.0,-999.0,86,-99.99,,,0.00,Acu-Link.com,2014-01-31 10:14:00,
2014-01-31 05:29:00,20.5,17.0,29.07,WSW,247,0.0,-999.0,86,-99.99,,,0.00,Acu-Link.com,2014-01-31 10:29:00,
2014-01-31 05:45:00,21.0,17.5,29.05,West,270,0.0,-999.0,86,-99.99,,,0.00,Acu-Link.com,2014-01-31 10:45:00,
2014-01-31 06:00:00,20.8,17.3,29.05,SW,225,0.0,-999.0,86,-99.99,,,0.00,Acu-Link.com,2014-01-31 11:00:00,
2014-01-31 06:15:00,20.7,17.2,29.06,SW,225,0.0,-999.0,86,-99.99,,,0.00,Acu-Link.com,2014-01-31 11:15:00,
2014-01-31 06:31:00,20.5,17.0,29.06,West,270,0.0,-999.0,86,-99.99,,,0.00,Acu-Link.com,2014-01-31 11:31:00,
2014-01-31 06:46:00,20.3,17.1,29.05,SW,225,0.0,-999.0,87,-99.99,,,0.00,Acu-Link.com,2014-01-31 11:46:00,
2014-01-31 07:01:00,20.1,16.9,29.05,West,270,0.0,-999.0,87,-99.99,,,0.00,Acu-Link.com,2014-01-31 12:01:00,
2014-01-31 07:17:00,20.1,16.9,29.06,SW,225,0.0,-999.0,87,-99.99,,,0.00,Acu-Link.com,2014-01-31 12:17:00,
2014-01-31 07:32:00,20.7,17.7,29.05,SSW,202,0.0,-999.0,88,-99.99,,,0.00,Acu-Link.com,2014-01-31 12:32:00,
2014-01-31 07:47:00,22.5,19.0,29.06,SSW,202,2.2,-999.0,86,-99.99,,,0.00,Acu-Link.com,2014-01-31 12:47:00,
2014-01-31 08:03:00,23.0,19.4,29.07,SW,225,0.0,-999.0,86,-99.99,,,0.00,Acu-Link.com,2014-01-31 13:03:00,
2014-01-31 08:18:00,25.3,20.9,29.07,West,270,0.0,-999.0,83,-99.99,,,0.00,Acu-Link.com,2014-01-31 13:18:00,
2014-01-31 08:33:00,26.4,21.7,29.08,West,270,1.7,-999.0,82,-99.99,,,0.00,Acu-Link.com,2014-01-31 13:33:00,
2014-01-31 08:48:00,27.5,22.2,29.08,NW,315,1.1,-999.0,80,-99.99,,,0.00,Acu-Link.com,2014-01-31 13:48:00,
2014-01-31 09:03:00,28.2,22.8,29.07,West,270,0.0,-999.0,80,-99.99,,,0.00,Acu-Link.com,2014-01-31 14:03:00,
2014-01-31 09:19:00,29.8,23.2,29.08,WSW,247,1.1,-999.0,76,-99.99,,,0.00,Acu-Link.com,2014-01-31 14:19:00,
2014-01-31 09:34:00,31.5,22.2,29.07,North,0,1.7,-999.0,68,-99.99,,,0.00,Acu-Link.com,2014-01-31 14:34:00,
2014-01-31 09:49:00,31.6,20.8,29.08,WNW,292,1.7,-999.0,64,-99.99,,,0.00,Acu-Link.com,2014-01-31 14:49:00,
2014-01-31 10:04:00,33.3,20.5,29.07,SW,225,2.7,-999.0,59,-99.99,,,0.00,Acu-Link.com,2014-01-31 15:04:00,
2014-01-31 10:19:00,34.3,18.5,29.09,WNW,292,3.2,-999.0,52,-99.99,,,0.00,Acu-Link.com,2014-01-31 15:19:00,
2014-01-31 10:34:00,34.3,19.0,29.08,NE,45,3.2,-999.0,53,-99.99,,,0.00,Acu-Link.com,2014-01-31 15:34:00,
2014-01-31 10:49:00,33.8,18.9,29.09,NE,45,2.7,-999.0,54,-99.99,,,0.00,Acu-Link.com,2014-01-31 15:49:00,
2014-01-31 11:04:00,34.3,19.8,29.09,WNW,292,2.2,-999.0,55,-99.99,,,0.00,Acu-Link.com,2014-01-31 16:04:00,
2014-01-31 11:20:00,35.1,20.2,29.08,WSW,247,1.7,-999.0,54,-99.99,,,0.00,Acu-Link.com,2014-01-31 16:20:00,
2014-01-31 11:35:00,35.8,20.4,29.08,South,180,2.2,-999.0,53,-99.99,,,0.00,Acu-Link.com,2014-01-31 16:35:00,
2014-01-31 11:50:00,36.9,20.9,29.08,NE,45,0.0,-999.0,52,-99.99,,,0.00,Acu-Link.com,2014-01-31 16:50:00,
2014-01-31 12:06:00,37.4,20.9,29.07,SSW,202,2.7,-999.0,51,-99.99,,,0.00,Acu-Link.com,2014-01-31 17:06:00,
2014-01-31 12:21:00,38.3,21.3,29.06,West,270,0.0,-999.0,50,-99.99,,,0.00,Acu-Link.com,2014-01-31 17:21:00,
2014-01-31 12:36:00,40.5,21.9,29.05,WNW,292,2.7,-999.0,47,-99.99,,,0.00,Acu-Link.com,2014-01-31 17:36:00,
2014-01-31 12:52:00,42.8,22.4,29.05,South,180,2.2,-999.0,44,-99.99,,,0.00,Acu-Link.com,2014-01-31 17:52:00,
2014-01-31 13:07:00,42.8,21.9,29.04,West,270,2.7,-999.0,43,-99.99,,,0.00,Acu-Link.com,2014-01-31 18:07:00,
2014-01-31 13:22:00,43.7,20.4,29.03,ENE,67,2.2,-999.0,39,-99.99,,,0.00,Acu-Link.com,2014-01-31 18:22:00,
2014-01-31 13:37:00,41.9,25.1,29.03,ESE,112,3.2,-999.0,51,-99.99,,,0.00,Acu-Link.com,2014-01-31 18:37:00,
2014-01-31 13:53:00,42.3,24.5,29.04,SSW,202,2.2,-999.0,49,-99.99,,,0.00,Acu-Link.com,2014-01-31 18:53:00,
2014-01-31 14:08:00,42.3,24.5,29.04,SW,225,3.2,-999.0,49,-99.99,,,0.00,Acu-Link.com,2014-01-31 19:08:00,
2014-01-31 14:23:00,41.9,26.5,29.04,SSW,202,3.7,-999.0,54,-99.99,,,0.00,Acu-Link.com,2014-01-31 19:23:00,
2014-01-31 14:39:00,42.1,26.2,29.04,SW,225,2.7,-999.0,53,-99.99,,,0.00,Acu-Link.com,2014-01-31 19:39:00,
2014-01-31 14:54:00,41.0,26.5,29.04,SSW,202,3.7,-999.0,56,-99.99,,,0.00,Acu-Link.com,2014-01-31 19:54:00,
2014-01-31 15:09:00,41.9,25.6,29.04,SSW,202,3.2,-999.0,52,-99.99,,,0.00,Acu-Link.com,2014-01-31 20:09:00,
2014-01-31 15:24:00,40.1,25.2,29.04,SSW,202,2.7,-999.0,55,-99.99,,,0.00,Acu-Link.com,2014-01-31 20:24:00,
2014-01-31 15:40:00,40.3,25.9,29.04,SW,225,2.7,-999.0,56,-99.99,,,0.00,Acu-Link.com,2014-01-31 20:40:00,
2014-01-31 15:55:00,39.2,25.3,29.05,SSW,202,4.7,-999.0,57,-99.99,,,0.00,Acu-Link.com,2014-01-31 20:55:00,
2014-01-31 16:10:00,39.0,25.5,29.04,SSW,202,1.7,-999.0,58,-99.99,,,0.00,Acu-Link.com,2014-01-31 21:10:00,
2014-01-31 16:26:00,38.5,25.0,29.04,WSW,247,3.7,-999.0,58,-99.99,,,0.00,Acu-Link.com,2014-01-31 21:26:00,
2014-01-31 16:41:00,37.8,25.2,29.05,SSW,202,2.2,-999.0,60,-99.99,,,0.00,Acu-Link.com,2014-01-31 21:41:00,
2014-01-31 16:56:00,36.1,25.5,29.05,SW,225,2.7,-999.0,65,-99.99,,,0.00,Acu-Link.com,2014-01-31 21:56:00,
2014-01-31 17:11:00,34.9,25.1,29.05,SSW,202,3.2,-999.0,67,-99.99,,,0.00,Acu-Link.com,2014-01-31 22:11:00,
2014-01-31 17:26:00,34.0,24.2,29.05,SSW,202,2.2,-999.0,67,-99.99,,,0.00,Acu-Link.com,2014-01-31 22:26:00,
2014-01-31 17:41:00,33.4,23.6,29.06,WSW,247,2.7,-999.0,67,-99.99,,,0.00,Acu-Link.com,2014-01-31 22:41:00,
2014-01-31 17:57:00,32.9,24.2,29.06,West,270,2.2,-999.0,70,-99.99,,,0.00,Acu-Link.com,2014-01-31 22:57:00,
2014-01-31 18:12:00,32.4,24.4,29.08,SW,225,2.2,-999.0,72,-99.99,,,0.00,Acu-Link.com,2014-01-31 23:12:00,
2014-01-31 18:27:00,32.0,24.3,29.08,SSW,202,2.7,-999.0,73,-99.99,,,0.00,Acu-Link.com,2014-01-31 23:27:00,
2014-01-31 18:42:00,31.6,24.3,29.09,WSW,247,0.0,-999.0,74,-99.99,,,0.00,Acu-Link.com,2014-01-31 23:42:00,
2014-01-31 18:57:00,31.1,24.1,29.09,WSW,247,2.2,-999.0,75,-99.99,,,0.00,Acu-Link.com,2014-01-31 23:57:00,
2014-01-31 19:13:00,30.7,24.0,29.09,SW,225,1.7,-999.0,76,-99.99,,,0.00,Acu-Link.com,2014-02-01 00:13:00,
2014-01-31 19:28:00,30.7,24.0,29.10,WSW,247,0.0,-999.0,76,-99.99,,,0.00,Acu-Link.com,2014-02-01 00:28:00,
2014-01-31 19:43:00,30.7,23.7,29.10,WSW,247,2.2,-999.0,75,-99.99,,,0.00,Acu-Link.com,2014-02-01 00:43:00,
2014-01-31 19:58:00,30.6,23.6,29.11,WSW,247,0.0,-999.0,75,-99.99,,,0.00,Acu-Link.com,2014-02-01 00:58:00,
2014-01-31 20:14:00,30.6,23.3,29.11,SW,225,2.2,-999.0,74,-99.99,,,0.00,Acu-Link.com,2014-02-01 01:14:00,
2014-01-31 20:29:00,30.4,23.1,29.12,WSW,247,1.7,-999.0,74,-99.99,,,0.00,Acu-Link.com,2014-02-01 01:29:00,
2014-01-31 20:44:00,30.0,22.7,29.13,WSW,247,0.0,-999.0,74,-99.99,,,0.00,Acu-Link.com,2014-02-01 01:44:00,
2014-01-31 21:00:00,30.2,22.9,29.13,WNW,292,0.0,-999.0,74,-99.99,,,0.00,Acu-Link.com,2014-02-01 02:00:00,
2014-01-31 21:15:00,29.8,22.5,29.12,WSW,247,0.0,-999.0,74,-99.99,,,0.00,Acu-Link.com,2014-02-01 02:15:00,
2014-01-31 21:30:00,29.5,22.3,29.13,West,270,2.2,-999.0,74,-99.99,,,0.00,Acu-Link.com,2014-02-01 02:30:00,
2014-01-31 21:45:00,29.3,22.1,29.13,West,270,1.7,-999.0,74,-99.99,,,0.00,Acu-Link.com,2014-02-01 02:45:00,
2014-01-31 22:00:00,28.8,22.2,29.14,SW,225,0.0,-999.0,76,-99.99,,,0.00,Acu-Link.com,2014-02-01 03:00:00,
2014-01-31 22:16:00,28.2,22.2,29.15,WSW,247,0.0,-999.0,78,-99.99,,,0.00,Acu-Link.com,2014-02-01 03:16:00,
2014-01-31 22:31:00,28.6,22.3,29.15,West,270,0.0,-999.0,77,-99.99,,,0.00,Acu-Link.com,2014-02-01 03:31:00,
2014-01-31 22:46:00,28.9,22.3,29.16,South,180,0.0,-999.0,76,-99.99,,,0.00,Acu-Link.com,2014-02-01 03:46:00,
2014-01-31 23:01:00,28.8,22.2,29.15,WSW,247,0.0,-999.0,76,-99.99,,,0.00,Acu-Link.com,2014-02-01 04:01:00,
2014-01-31 23:17:00,28.4,22.1,29.15,NNW,337,0.0,-999.0,77,-99.99,,,0.00,Acu-Link.com,2014-02-01 04:17:00,
2014-01-31 23:32:00,28.6,22.3,29.16,West,270,0.0,-999.0,77,-99.99,,,0.00,Acu-Link.com,2014-02-01 04:32:00,
2014-01-31 23:47:00,28.9,22.6,29.15,WSW,247,0.0,-999.0,77,-99.99,,,0.00,Acu-Link.com,2014-02-01 04:47:00,